Time;durP1;ratioP1;P1;durP2;ratioP2;P2;SDS_P1;SDS_P2;PMS_P1;PMS_P2;Temp;Humidity;BMP_temperature;BMP_pressure;BME280_temperature;BME280_humidity;BME280_pressure;Samples;Min_cycle;Max_cycle;Signal;HPM_P1;HPM_P2
2023/07/12 00:01:16;;;;;;;8.98;8.07;;;21.10;99.90;;;;;;5067782;28;20185;-75
2023/07/12 00:03:42;;;;;;;11.07;9.00;;;21.30;99.90;;;;;;5067202;28;20182;-75
2023/07/12 00:06:17;;;;;;;10.68;8.57;;;21.40;99.90;;;;;;5068140;28;20205;-75
2023/07/12 00:08:43;;;;;;;8.85;7.95;;;21.10;99.90;;;;;;5067511;28;20242;-76
2023/07/12 00:11:17;;;;;;;10.13;9.05;;;21.10;1.00;;;;;;5067571;28;20643;-77
2023/07/12 00:13:43;;;;;;;9.55;8.38;;;21.00;99.90;;;;;;5048686;28;20545;-76
2023/07/12 00:16:26;;;;;;;9.43;8.40;;;21.20;99.90;;;;;;5067170;28;20201;-75
2023/07/12 00:18:53;;;;;;;9.93;8.57;;;21.10;1.00;;;;;;5049190;28;20194;-75
2023/07/12 00:21:24;;;;;;;9.35;8.45;;;21.10;1.00;;;;;;5058567;28;20853;-75
2023/07/12 00:23:55;;;;;;;9.48;8.50;;;21.20;99.90;;;;;;5048852;28;20306;-76
2023/07/12 00:26:38;;;;;;;9.63;8.63;;;20.80;99.90;;;;;;5066888;28;20205;-75
2023/07/12 00:29:06;;;;;;;9.25;8.40;;;21.30;99.90;;;;;;5067485;28;20235;-75
2023/07/12 00:31:33;;;;;;;10.15;8.52;;;21.00;99.90;;;;;;5066697;28;20178;-75
2023/07/12 00:33:59;;;;;;;9.07;8.18;;;21.10;99.90;;;;;;5065944;28;20656;-76
2023/07/12 00:36:27;;;;;;;9.18;8.38;;;21.30;99.90;;;;;;5066899;28;20237;-75
2023/07/12 00:38:54;;;;;;;10.15;9.02;;;21.00;99.90;;;;;;5066646;28;20209;-75
2023/07/12 00:41:41;;;;;;;10.65;8.80;;;21.10;1.00;;;;;;5066646;28;20174;-75
2023/07/12 00:44:23;;;;;;;9.90;8.73;;;21.00;99.90;;;;;;5056909;28;20185;-76
2023/07/12 00:46:53;;;;;;;10.02;8.70;;;21.10;1.00;;;;;;5066315;28;20263;-76
2023/07/12 00:49:19;;;;;;;8.98;8.02;;;21.40;1.00;;;;;;5066724;28;20261;-75
2023/07/12 00:51:48;;;;;;;9.02;8.13;;;21.10;99.90;;;;;;5066745;28;20261;-76
2023/07/12 00:54:17;;;;;;;9.27;8.38;;;20.60;99.90;;;;;;5047498;28;20184;-76
2023/07/12 00:56:43;;;;;;;9.73;8.77;;;20.80;99.90;;;;;;5066685;28;20213;-75
2023/07/12 00:59:18;;;;;;;10.15;8.60;;;21.00;1.00;;;;;;5048378;28;20561;-75
2023/07/12 01:01:44;;;;;;;10.00;8.95;;;21.00;1.00;;;;;;5065559;28;20663;-76
2023/07/12 01:04:15;;;;;;;9.35;8.32;;;21.10;99.90;;;;;;5064909;28;20185;-75
2023/07/12 01:06:40;;;;;;;9.70;8.82;;;20.80;99.90;;;;;;5066370;28;20209;-75
2023/07/12 01:09:11;;;;;;;9.80;8.90;;;21.10;1.00;;;;;;5066371;28;20687;-75
2023/07/12 01:11:38;;;;;;;9.73;8.77;;;20.90;99.90;;;;;;5066445;28;20262;-76
2023/07/12 01:14:13;;;;;;;9.68;8.68;;;21.20;99.90;;;;;;5065890;28;20181;-76
2023/07/12 01:16:41;;;;;;;9.80;8.55;;;21.60;1.00;;;;;;5064256;28;20205;-76
2023/07/12 01:19:07;;;;;;;9.77;8.82;;;21.40;99.90;;;;;;5065952;28;20340;-76
2023/07/12 01:21:33;;;;;;;9.77;8.80;;;21.30;99.90;;;;;;5066245;28;20290;-76
2023/07/12 01:23:59;;;;;;;9.65;8.73;;;;;;;;;;5064229;28;20182;-76
2023/07/12 01:26:33;;;;;;;9.63;8.68;;;21.10;99.90;;;;;;5066142;28;20213;-75
2023/07/12 01:29:00;;;;;;;9.77;8.77;;;21.10;99.90;;;;;;5065990;28;20190;-76
2023/07/12 01:31:27;;;;;;;11.23;8.73;;;21.30;99.90;;;;;;5048620;28;20267;-76
2023/07/12 01:33:54;;;;;;;10.48;9.48;;;21.00;1.00;;;;;;5047258;28;20177;-76
2023/07/12 01:36:21;;;;;;;10.70;9.70;;;20.70;99.90;;;;;;5047548;28;20308;-76
2023/07/12 01:38:49;;;;;;;9.85;8.80;;;20.80;99.90;;;;;;5048246;28;20205;-76
2023/07/12 01:41:14;;;;;;;9.60;8.60;;;21.00;1.00;;;;;;5066381;28;20230;-75
2023/07/12 01:43:40;;;;;;;10.68;8.65;;;21.20;99.90;;;;;;5065570;28;20185;-76
2023/07/12 01:46:05;;;;;;;10.43;8.60;;;21.00;99.90;;;;;;5066035;28;20205;-76
2023/07/12 01:48:32;;;;;;;9.50;8.60;;;20.90;1.00;;;;;;5065727;28;20185;-74
2023/07/12 01:50:59;;;;;;;9.43;8.10;;;21.20;99.90;;;;;;5065805;28;20196;-76
2023/07/12 01:53:24;;;;;;;9.07;7.60;;;21.30;99.90;;;;;;5066148;28;20189;-76
2023/07/12 01:55:50;;;;;;;9.23;7.68;;;21.10;99.90;;;;;;5062582;28;20209;-75
2023/07/12 01:58:16;;;;;;;10.32;8.00;;;21.40;1.00;;;;;;5057344;28;20209;-75
2023/07/12 02:00:41;;;;;;;8.50;7.68;;;21.60;99.90;;;;;;5065264;28;20206;-75
2023/07/12 02:03:07;;;;;;;7.32;6.63;;;21.60;1.00;;;;;;5065593;28;20683;-75
2023/07/12 02:05:33;;;;;;;7.60;6.90;;;21.40;99.90;;;;;;5063689;28;20208;-76
2023/07/12 02:07:59;;;;;;;7.13;6.43;;;21.80;1.00;;;;;;5065351;28;20182;-76
2023/07/12 02:10:25;;;;;;;7.38;6.60;;;22.00;99.90;;;;;;5065704;28;20664;-77
2023/07/12 02:12:51;;;;;;;7.15;6.30;;;;;;;;;;5065211;28;20265;-75
2023/07/12 02:15:18;;;;;;;6.82;5.60;;;22.50;99.90;;;;;;5064609;28;20563;-75
2023/07/12 02:17:44;;;;;;;6.68;5.47;;;22.70;99.90;;;;;;5064769;28;20174;-75
2023/07/12 02:20:12;;;;;;;8.27;5.13;;;22.70;99.90;;;;;;5064854;28;20198;-76
2023/07/12 02:22:41;;;;;;;6.13;5.53;;;23.10;99.90;;;;;;5064788;28;20178;-78
2023/07/12 02:25:09;;;;;;;6.57;4.90;;;22.80;99.90;;;;;;5064035;28;20202;-76
2023/07/12 02:27:34;;;;;;;5.57;5.07;;;23.20;99.90;;;;;;5064812;28;20711;-75
2023/07/12 02:30:00;;;;;;;6.43;5.22;;;23.10;99.90;;;;;;5064685;28;20185;-76
2023/07/12 02:32:27;;;;;;;9.82;5.38;;;23.10;99.90;;;;;;5064509;28;20201;-76
2023/07/12 02:34:53;;;;;;;7.57;5.40;;;22.90;99.90;;;;;;5064157;28;20184;-76
2023/07/12 02:37:19;;;;;;;6.63;5.22;;;23.00;99.90;;;;;;5064857;28;20201;-76
2023/07/12 02:39:46;;;;;;;5.65;5.13;;;23.20;99.90;;;;;;5064585;28;20556;-75
2023/07/12 02:42:12;;;;;;;9.45;4.78;;;23.00;99.90;;;;;;5064477;28;20178;-75
2023/07/12 02:44:42;;;;;;;6.07;5.32;;;23.00;99.90;;;;;;5063869;28;20189;-77
2023/07/12 02:47:10;;;;;;;5.40;4.82;;;22.90;1.00;;;;;;5063985;28;20208;-76
2023/07/12 02:49:36;;;;;;;5.10;4.60;;;22.70;99.90;;;;;;5064404;28;20181;-77
2023/07/12 02:52:04;;;;;;;7.28;5.07;;;23.00;1.00;;;;;;5046300;28;20192;-74
2023/07/12 02:54:30;;;;;;;6.82;5.15;;;23.00;99.90;;;;;;5055610;28;20185;-75
2023/07/12 02:56:56;;;;;;;5.93;5.20;;;23.00;99.90;;;;;;5064168;28;20213;-76
2023/07/12 02:59:21;;;;;;;6.20;5.60;;;23.20;99.90;;;;;;5064466;28;20206;-76
2023/07/12 03:01:47;;;;;;;6.28;5.35;;;22.70;99.90;;;;;;5064060;28;20189;-76
2023/07/12 03:04:13;;;;;;;5.55;5.03;;;23.30;1.00;;;;;;5064127;28;20265;-76
2023/07/12 03:06:39;;;;;;;5.57;4.78;;;23.10;99.90;;;;;;5064129;28;20280;-76
2023/07/12 03:09:05;;;;;;;10.05;4.95;;;22.90;1.00;;;;;;5064446;28;20186;-75
2023/07/12 03:11:31;;;;;;;7.93;5.50;;;23.10;1.00;;;;;;5064367;28;20244;-75
2023/07/12 03:13:56;;;;;;;7.25;5.35;;;22.80;1.00;;;;;;5063414;28;20186;-76
2023/07/12 03:16:22;;;;;;;7.90;5.55;;;22.60;1.00;;;;;;5050568;28;20691;-75
2023/07/12 03:18:49;;;;;;;7.25;5.50;;;19.50;99.90;;;;;;5064201;28;20201;-76
2023/07/12 03:21:15;;;;;;;7.28;5.70;;;22.60;1.00;;;;;;5064377;28;20177;-76
2023/07/12 03:23:42;;;;;;;8.43;5.60;;;22.00;99.90;;;;;;5064173;28;20747;-75
2023/07/12 03:26:08;;;;;;;8.90;5.40;;;21.50;99.90;;;;;;5063333;28;20621;-75
2023/07/12 03:28:34;;;;;;;7.72;5.20;;;21.40;99.90;;;;;;5064050;28;20231;-75
2023/07/12 03:31:18;;;;;;;7.57;5.72;;;21.60;99.90;;;;;;5063747;28;20224;-75
2023/07/12 03:33:46;;;;;;;5.97;5.20;;;21.50;99.90;;;;;;5063488;28;20227;-75
2023/07/12 03:36:12;;;;;;;9.77;5.20;;;21.60;99.90;;;;;;5063600;28;20688;-75
2023/07/12 03:38:38;;;;;;;5.78;5.18;;;21.10;99.90;;;;;;5063798;28;20201;-75
2023/07/12 03:41:06;;;;;;;7.82;4.93;;;20.90;99.90;;;;;;5063904;28;20192;-76
2023/07/12 03:43:33;;;;;;;9.73;5.57;;;21.00;99.90;;;;;;5063614;28;20181;-75
2023/07/12 03:45:58;;;;;;;6.45;5.05;;;21.20;1.00;;;;;;5062984;28;20227;-76
2023/07/12 03:48:25;;;;;;;8.05;5.28;;;21.10;99.90;;;;;;5064167;28;20182;-75
2023/07/12 03:50:53;;;;;;;6.75;5.30;;;21.10;99.90;;;;;;5063369;28;20679;-75
2023/07/12 03:53:19;;;;;;;6.15;5.55;;;20.90;99.90;;;;;;5063618;28;20185;-75
2023/07/12 03:55:46;;;;;;;7.65;6.30;;;21.10;99.90;;;;;;5044992;28;20202;-76
2023/07/12 03:58:15;;;;;;;7.70;5.68;;;20.80;99.90;;;;;;5063825;28;20178;-75
2023/07/12 04:00:42;;;;;;;8.18;5.75;;;20.40;99.90;;;;;;5063576;28;21012;-75
2023/07/12 04:03:08;;;;;;;6.43;5.80;;;;;;;;;;5063606;28;20213;-74
2023/07/12 04:05:37;;;;;;;7.47;5.68;;;21.00;99.90;;;;;;5062934;28;20661;-75
2023/07/12 04:08:03;;;;;;;7.05;5.35;;;;;;;;;;5064300;28;20182;-75
2023/07/12 04:10:29;;;;;;;9.15;5.75;;;20.70;99.90;;;;;;5053727;28;20675;-75
2023/07/12 04:12:55;;;;;;;6.15;5.45;;;20.70;99.90;;;;;;5064664;28;20232;-75
2023/07/12 04:15:21;;;;;;;6.90;5.68;;;;;;;;;;5063935;28;20185;-75
2023/07/12 04:17:47;;;;;;;5.85;5.18;;;;;;;;;;5061435;28;20185;-75
2023/07/12 04:20:13;;;;;;;6.82;5.00;;;;;;;;;;5044632;28;20580;-76
2023/07/12 04:22:39;;;;;;;7.85;6.32;;;20.50;99.90;;;;;;5063325;28;20693;-75
2023/07/12 04:25:06;;;;;;;6.72;5.60;;;20.30;99.90;;;;;;5062907;28;20235;-75
2023/07/12 04:27:37;;;;;;;5.90;5.30;;;;;;;;;;5046349;28;20216;-76
2023/07/12 04:30:04;;;;;;;6.45;5.25;;;20.50;99.90;;;;;;5066448;28;20177;-76
2023/07/12 04:32:30;;;;;;;6.40;4.85;;;20.70;99.90;;;;;;5067886;28;20177;-75
2023/07/12 04:34:55;;;;;;;6.20;4.85;;;20.60;99.90;;;;;;5067437;28;20524;-76
2023/07/12 04:37:21;;;;;;;7.63;5.25;;;20.10;99.90;;;;;;5067897;28;20197;-76
2023/07/12 04:39:47;;;;;;;5.93;4.60;;;20.00;99.90;;;;;;5057133;28;20319;-74
2023/07/12 04:42:13;;;;;;;5.90;4.60;;;20.40;99.90;;;;;;5067856;28;20181;-75
2023/07/12 04:44:39;;;;;;;4.60;4.15;;;20.50;99.90;;;;;;5066056;28;20194;-76
2023/07/12 04:47:06;;;;;;;5.60;4.32;;;20.50;1.00;;;;;;5065641;28;20201;-76
2023/07/12 04:49:32;;;;;;;5.50;4.05;;;21.00;99.90;;;;;;5065584;28;20622;-75
2023/07/12 04:51:58;;;;;;;7.00;4.18;;;21.30;99.90;;;;;;5066666;28;20268;-76
2023/07/12 04:54:24;;;;;;;6.38;4.00;;;21.00;99.90;;;;;;5065779;28;20201;-75
2023/07/12 04:56:50;;;;;;;5.70;3.88;;;21.00;99.90;;;;;;5066965;28;20251;-76
2023/07/12 04:59:15;;;;;;;5.15;3.50;;;21.50;1.00;;;;;;5067663;28;20198;-76
2023/07/12 05:01:42;;;;;;;4.78;3.65;;;21.20;99.90;;;;;;5067562;28;20184;-75
2023/07/12 05:04:08;;;;;;;5.10;3.50;;;21.10;1.00;;;;;;5066832;28;20217;-76
2023/07/12 05:06:34;;;;;;;4.00;3.55;;;;;;;;;;5067317;28;20197;-75
2023/07/12 05:08:59;;;;;;;5.55;3.70;;;21.40;99.90;;;;;;5067652;28;20260;-76
2023/07/12 05:11:25;;;;;;;6.03;3.45;;;21.20;99.90;;;;;;5067958;28;20189;-76
2023/07/12 05:13:51;;;;;;;4.18;3.15;;;21.60;70.70;;;;;;5065561;28;20193;-76
2023/07/12 05:16:17;;;;;;;4.72;3.10;;;21.60;59.30;;;;;;5066401;28;21605;-76
2023/07/12 05:18:42;;;;;;;3.85;2.92;;;21.60;99.90;;;;;;5067346;28;20247;-75
2023/07/12 05:21:08;;;;;;;4.85;3.22;;;21.10;99.90;;;;;;5067829;28;20186;-75
2023/07/12 05:23:36;;;;;;;4.53;3.13;;;21.50;99.90;;;;;;5067219;28;20173;-75
2023/07/12 05:26:03;;;;;;;3.55;2.65;;;21.10;99.90;;;;;;5056992;28;20217;-76
2023/07/12 05:28:28;;;;;;;3.03;2.72;;;21.50;99.90;;;;;;5067278;28;20174;-76
2023/07/12 05:30:54;;;;;;;4.20;2.95;;;20.80;99.90;;;;;;5066835;28;20187;-76
2023/07/12 05:33:19;;;;;;;4.75;3.80;;;21.20;99.90;;;;;;5067016;28;20296;-75
2023/07/12 05:35:48;;;;;;;6.55;3.53;;;21.20;99.90;;;;;;5066315;28;20204;-76
2023/07/12 05:38:14;;;;;;;6.00;3.20;;;20.60;99.90;;;;;;5048479;28;20178;-76
2023/07/12 05:40:40;;;;;;;4.53;3.20;;;;;;;;;;5066810;28;20209;-76
2023/07/12 05:43:05;;;;;;;3.45;2.90;;;;;;;;;;5048867;28;20190;-77
2023/07/12 05:45:31;;;;;;;5.45;2.75;;;20.90;99.90;;;;;;5065911;28;20564;-76
2023/07/12 05:47:57;;;;;;;4.32;3.08;;;20.80;99.90;;;;;;5067052;28;20197;-75
2023/07/12 05:50:23;;;;;;;4.28;2.55;;;;;;;;;;5066159;28;20178;-76
2023/07/12 05:52:49;;;;;;;5.20;2.75;;;;;;;;;;5066764;28;20537;-77
2023/07/12 05:55:17;;;;;;;3.38;2.80;;;20.60;99.90;;;;;;5065762;28;20177;-76
2023/07/12 05:57:44;;;;;;;3.80;2.38;;;20.80;43.50;;;;;;5066166;28;20184;-75
2023/07/12 06:00:11;;;;;;;3.95;2.35;;;20.90;99.90;;;;;;5066199;28;20671;-75
2023/07/12 06:02:38;;;;;;;2.22;2.05;;;21.30;99.90;;;;;;5063747;28;20186;-76
2023/07/12 06:05:05;;;;;;;2.10;1.80;;;21.50;1.00;;;;;;5065225;28;20196;-77
2023/07/12 06:07:31;;;;;;;2.83;2.17;;;21.10;99.90;;;;;;5066528;28;20208;-76
2023/07/12 06:09:57;;;;;;;2.28;1.73;;;21.20;99.90;;;;;;5065738;28;20696;-77
2023/07/12 06:12:23;;;;;;;3.92;1.80;;;21.30;99.90;;;;;;5066054;28;20649;-75
2023/07/12 06:14:48;;;;;;;2.22;1.85;;;21.40;99.90;;;;;;5065614;28;20185;-76
2023/07/12 06:17:14;;;;;;;2.58;1.48;;;;;;;;;;5065615;28;20297;-77
2023/07/12 06:19:40;;;;;;;2.78;2.13;;;;;;;;;;5065861;28;20697;-75
2023/07/12 06:22:06;;;;;;;2.88;1.92;;;21.20;99.90;;;;;;5065647;28;20185;-76
2023/07/12 06:24:32;;;;;;;2.85;2.00;;;21.40;99.90;;;;;;5065412;28;20644;-77
2023/07/12 06:26:57;;;;;;;2.00;1.48;;;21.30;99.90;;;;;;5065218;28;20205;-76
2023/07/12 06:29:24;;;;;;;2.47;1.60;;;21.10;99.90;;;;;;5065693;28;20185;-76
2023/07/12 06:31:51;;;;;;;3.38;1.40;;;21.20;99.90;;;;;;5065460;28;20243;-76
2023/07/12 06:34:16;;;;;;;2.25;1.85;;;22.00;99.90;;;;;;5065781;28;20181;-77
2023/07/12 06:36:42;;;;;;;1.77;1.30;;;23.60;50.60;;;;;;5065706;28;20216;-75
2023/07/12 06:39:08;;;;;;;3.03;1.50;;;24.70;99.90;;;;;;5065642;28;20205;-76
2023/07/12 06:41:34;;;;;;;2.53;1.30;;;;;;;;;;5064912;28;20200;-75
2023/07/12 06:43:59;;;;;;;1.77;1.17;;;25.70;37.20;;;;;;5064595;28;20177;-75
2023/07/12 06:46:25;;;;;;;1.70;1.00;;;25.80;99.90;;;;;;5046815;28;20560;-75
2023/07/12 06:48:51;;;;;;;1.55;1.10;;;25.80;99.90;;;;;;5065103;28;20216;-77
2023/07/12 06:51:17;;;;;;;2.70;1.10;;;23.60;1.00;;;;;;5063386;28;20624;-76
2023/07/12 06:53:42;;;;;;;1.95;1.10;;;23.40;1.00;;;;;;5046811;28;20177;-75
2023/07/12 06:56:08;;;;;;;2.50;1.10;;;22.90;1.00;;;;;;5064537;28;20206;-75
2023/07/12 06:58:34;;;;;;;3.28;1.15;;;22.70;56.50;;;;;;5064441;28;20189;-76
2023/07/12 07:01:00;;;;;;;2.08;1.45;;;22.90;1.00;;;;;;5063356;28;20193;-77
2023/07/12 07:03:26;;;;;;;2.83;1.10;;;22.20;1.00;;;;;;5064130;28;20607;-77
2023/07/12 07:05:51;;;;;;;3.40;1.05;;;22.50;1.00;;;;;;5062171;28;20243;-76
2023/07/12 07:08:19;;;;;;;2.60;1.40;;;22.40;99.90;;;;;;5046295;28;20178;-75
2023/07/12 07:10:50;;;;;;;2.25;1.25;;;22.80;1.00;;;;;;5064652;28;20595;-76
2023/07/12 07:13:15;;;;;;;2.17;1.20;;;22.60;1.00;;;;;;5064032;28;20181;-76
2023/07/12 07:15:43;;;;;;;2.38;1.10;;;23.10;1.00;;;;;;5063767;28;20579;-76
2023/07/12 07:18:10;;;;;;;2.10;0.90;;;22.40;1.00;;;;;;5064518;28;20208;-78
2023/07/12 07:20:35;;;;;;;1.13;0.95;;;22.40;1.00;;;;;;5064608;28;20219;-77
2023/07/12 07:23:01;;;;;;;1.60;0.85;;;22.60;1.00;;;;;;5064682;28;20932;-76
2023/07/12 07:25:28;;;;;;;1.48;1.00;;;22.60;1.00;;;;;;5063331;28;20723;-77
2023/07/12 07:27:54;;;;;;;1.98;0.90;;;22.90;1.00;;;;;;5053499;28;20177;-76
2023/07/12 07:30:20;;;;;;;1.98;1.10;;;23.00;1.00;;;;;;5063572;28;20189;-76
2023/07/12 07:32:46;;;;;;;1.33;0.90;;;;;;;;;;5060196;28;20243;-78
2023/07/12 07:35:13;;;;;;;2.33;0.95;;;23.40;99.90;;;;;;5040658;28;20185;-75
2023/07/12 07:37:39;;;;;;;2.28;1.02;;;23.50;1.00;;;;;;5062124;28;20181;-78
2023/07/12 07:40:07;;;;;;;0.98;0.93;;;24.00;99.90;;;;;;5061473;28;20311;-76
2023/07/12 07:42:32;;;;;;;1.83;1.00;;;24.00;99.90;;;;;;5062134;28;20272;-76
2023/07/12 07:44:58;;;;;;;2.45;1.45;;;24.10;99.90;;;;;;5044545;28;20185;-76
2023/07/12 07:47:24;;;;;;;1.98;1.10;;;23.80;1.00;;;;;;5063810;28;20200;-75
2023/07/12 07:49:49;;;;;;;3.25;1.17;;;23.80;1.00;;;;;;5061000;28;20190;-77
2023/07/12 07:52:15;;;;;;;2.47;1.40;;;;;;;;;;5060422;28;20755;-76
2023/07/12 07:54:41;;;;;;;3.00;1.30;;;;;;;;;;5063261;28;20197;-75
2023/07/12 07:57:07;;;;;;;4.63;1.50;;;23.50;1.00;;;;;;5063218;28;20213;-77
2023/07/12 07:59:33;;;;;;;1.95;1.20;;;23.40;1.00;;;;;;5063154;28;20228;-75
2023/07/12 08:01:59;;;;;;;2.08;1.23;;;;;;;;;;5063215;28;20193;-75
2023/07/12 08:04:25;;;;;;;1.50;1.20;;;23.80;1.00;;;;;;5065432;28;20181;-75
2023/07/12 08:06:50;;;;;;;2.58;1.48;;;24.00;1.00;;;;;;5067093;28;20254;-75
2023/07/12 08:09:16;;;;;;;3.15;1.20;;;23.40;1.00;;;;;;5066735;28;20271;-75
2023/07/12 08:11:42;;;;;;;3.00;1.00;;;23.80;1.00;;;;;;5048599;28;20212;-74
2023/07/12 08:14:08;;;;;;;1.83;0.93;;;23.50;1.00;;;;;;5067117;28;20201;-74
2023/07/12 08:16:35;;;;;;;4.35;0.93;;;23.50;99.90;;;;;;5048573;28;20784;-74
2023/07/12 08:19:04;;;;;;;1.85;0.90;;;23.40;1.00;;;;;;5067149;28;20285;-75
2023/07/12 08:21:31;;;;;;;2.47;0.70;;;23.30;1.00;;;;;;5067366;28;20178;-75
2023/07/12 08:23:57;;;;;;;2.25;0.70;;;23.80;1.00;;;;;;5067194;28;20667;-74
2023/07/12 08:26:23;;;;;;;0.90;0.60;;;;;;;;;;5066148;28;20213;-74
2023/07/12 08:28:49;;;;;;;1.35;0.80;;;23.70;1.00;;;;;;5057942;28;20174;-75
2023/07/12 08:31:15;;;;;;;1.13;0.90;;;23.90;1.00;;;;;;5066622;28;20184;-75
2023/07/12 08:33:43;;;;;;;2.60;1.40;;;23.60;99.90;;;;;;5067265;28;20205;-75
2023/07/12 08:36:10;;;;;;;3.47;1.60;;;23.80;1.00;;;;;;5066694;28;20684;-76
2023/07/12 08:38:36;;;;;;;2.20;1.15;;;23.70;1.00;;;;;;5067780;28;20182;-75
2023/07/12 08:41:14;;;;;;;0.93;0.90;;;23.60;1.00;;;;;;5049928;28;20185;-75
2023/07/12 08:43:39;;;;;;;1.55;0.77;;;23.60;2.80;;;;;;5067175;28;20181;-76
2023/07/12 08:46:24;;;;;;;1.17;0.90;;;23.60;1.00;;;;;;5048144;28;20208;-76
2023/07/12 08:48:57;;;;;;;1.48;0.85;;;23.60;1.00;;;;;;5058019;28;20201;-75
2023/07/12 08:51:35;;;;;;;1.00;0.80;;;23.70;1.00;;;;;;5048790;28;20552;-76
2023/07/12 08:54:01;;;;;;;1.75;0.90;;;24.20;1.00;;;;;;5066280;28;20181;-75
2023/07/12 08:56:27;;;;;;;1.85;0.88;;;24.00;1.00;;;;;;5065831;28;20257;-75
2023/07/12 08:58:54;;;;;;;0.80;0.70;;;23.90;99.90;;;;;;5053994;22;20306;-91
2023/07/12 09:01:53;;;;;;;2.35;0.70;;;24.30;99.90;;;;;;5029308;28;20186;-91
2023/07/12 09:04:30;;;;;;;0.98;0.60;;;24.20;99.90;;;;;;5009662;28;20286;-92
2023/07/12 09:06:59;;;;;;;1.13;0.70;;;24.10;99.90;;;;;;5021601;28;20182;-91
2023/07/12 09:09:33;;;;;;;0.73;0.70;;;24.10;99.90;;;;;;5041030;28;20182;-89
2023/07/12 09:12:01;;;;;;;0.90;0.68;;;;;;;;;;5030668;28;20618;-90
2023/07/12 09:14:29;;;;;;;2.25;2.15;;;24.50;99.90;;;;;;5020914;28;20209;-90
2023/07/12 09:16:57;;;;;;;12.38;11.10;;;24.70;99.90;;;;;;5018422;28;20669;-91
2023/07/12 09:19:27;;;;;;;6.95;5.57;;;24.70;99.90;;;;;;5022071;28;20242;-91
2023/07/12 09:22:13;;;;;;;5.72;5.20;;;24.60;99.90;;;;;;5020787;28;20201;-91
2023/07/12 09:24:43;;;;;;;1.48;1.23;;;24.30;99.90;;;;;;5039400;28;20220;-91
2023/07/12 09:27:22;;;;;;;4.07;2.35;;;24.20;1.00;;;;;;5021634;28;20183;-91
2023/07/12 09:29:48;;;;;;;2.08;1.70;;;;;;;;;;5037968;28;20783;-91
2023/07/12 10:21:41;;;;;;;2.42;1.38;;;24.00;99.90;;;;;;4982677;28;20291;-93
2023/07/12 12:18:15;;;;;;;2.95;2.30;;;25.00;1.00;;;;;;5046804;28;20221;-87
2023/07/12 12:21:00;;;;;;;2.42;2.22;;;24.70;1.00;;;;;;5047166;28;20229;-85
2023/07/12 12:23:30;;;;;;;2.72;2.53;;;25.10;1.00;;;;;;5030736;28;20178;-85
2023/07/12 12:26:01;;;;;;;2.58;2.38;;;24.80;99.90;;;;;;5010773;28;20194;-85
2023/07/12 12:28:31;;;;;;;3.75;2.47;;;24.90;99.90;;;;;;5028538;28;20179;-84
2023/07/12 12:31:16;;;;;;;4.72;2.67;;;25.10;99.90;;;;;;5027417;28;20190;-85
2023/07/12 12:33:51;;;;;;;2.80;2.30;;;25.30;99.90;;;;;;5027772;28;20193;-86
2023/07/12 12:36:25;;;;;;;2.17;1.92;;;25.50;1.00;;;;;;5027202;28;20640;-85
2023/07/12 12:39:05;;;;;;;2.15;1.92;;;26.20;99.90;;;;;;5006763;28;20201;-85
2023/07/12 12:41:38;;;;;;;2.35;1.70;;;26.00;1.00;;;;;;5007231;28;20558;-86
2023/07/12 12:44:12;;;;;;;2.42;1.90;;;26.40;99.90;;;;;;5016149;28;20226;-85
2023/07/12 12:46:40;;;;;;;2.67;2.38;;;26.00;99.90;;;;;;5009248;28;20206;-85
2023/07/12 12:49:30;;;;;;;2.85;2.20;;;25.80;99.90;;;;;;5040596;28;21136;-84
2023/07/12 12:52:08;;;;;;;1.98;1.88;;;25.80;1.00;;;;;;5008689;28;20213;-85
2023/07/12 12:54:35;;;;;;;2.10;1.90;;;;;;;;;;5024716;28;20285;-84
2023/07/12 12:57:00;;;;;;;2.63;1.80;;;;;;;;;;5007296;28;20190;-85
2023/07/12 12:59:26;;;;;;;1.85;1.70;;;;;;;;;;5010011;28;20631;-83
2023/07/12 13:01:52;;;;;;;2.53;1.70;;;;;;;;;;5010414;28;20257;-84
2023/07/12 13:04:19;;;;;;;1.48;1.30;;;;;;;;;;5010761;28;20206;-88
2023/07/12 13:07:28;;;;;;;1.52;1.40;;;25.10;1.00;;;;;;5020903;28;20620;-89
2023/07/12 14:46:48;;;;;;;2.13;1.30;;;;;;;;;;5028551;23;20223;-87
2023/07/12 14:49:23;;;;;;;2.22;1.20;;;25.70;93.20;;;;;;4986595;28;20183;-88
2023/07/12 14:51:49;;;;;;;1.20;1.10;;;;;;;;;;4978305;28;20180;-88
2023/07/12 14:54:20;;;;;;;2.60;1.02;;;25.90;70.80;;;;;;4995622;28;20339;-88
2023/07/12 14:56:46;;;;;;;1.95;1.10;;;;;;;;;;4993141;28;20192;-88
2023/07/12 14:59:12;;;;;;;2.60;1.08;;;;;;;;;;4993189;28;20208;-87
2023/07/12 15:01:38;;;;;;;2.90;1.20;;;;;;;;;;4986790;28;20671;-87
2023/07/12 15:04:14;;;;;;;2.13;1.00;;;25.60;69.00;;;;;;4994231;28;21174;-87
2023/07/12 15:06:40;;;;;;;1.95;1.15;;;;;;;;;;4993831;28;20180;-86
2023/07/12 15:09:06;;;;;;;1.95;0.82;;;;;;;;;;4994325;28;20184;-88
2023/07/12 15:11:32;;;;;;;1.20;0.80;;;;;;;;;;4977030;28;20203;-88
2023/07/12 15:13:58;;;;;;;4.15;1.00;;;;;;;;;;4994143;28;20204;-87
2023/07/12 15:16:25;;;;;;;1.73;0.95;;;;;;;;;;4986545;28;20602;-87
2023/07/12 15:18:52;;;;;;;1.60;0.93;;;;;;;;;;4986450;28;20176;-88
2023/07/12 15:21:24;;;;;;;1.92;1.00;;;26.10;37.70;;;;;;4981203;28;20568;-88
2023/07/12 15:23:51;;;;;;;2.03;1.00;;;;;;;;;;4978203;28;20210;-88
2023/07/12 15:26:17;;;;;;;2.92;0.95;;;25.70;43.30;;;;;;4996397;28;20186;-88
2023/07/12 15:28:47;;;;;;;2.17;1.17;;;25.30;1.00;;;;;;5002115;28;20188;-88
2023/07/12 15:31:22;;;;;;;2.65;1.17;;;25.30;1.00;;;;;;4973348;28;20654;-88
2023/07/12 15:33:49;;;;;;;1.40;1.10;;;25.40;1.00;;;;;;4982055;28;20180;-88
2023/07/12 15:36:16;;;;;;;2.38;1.10;;;25.00;57.40;;;;;;4980125;28;20727;-88
2023/07/12 15:38:44;;;;;;;2.45;0.90;;;24.80;60.70;;;;;;4986396;28;20559;-89
2023/07/12 15:41:17;;;;;;;2.97;1.00;;;25.20;1.00;;;;;;5000354;28;20211;-89
2023/07/12 15:43:48;;;;;;;1.98;1.10;;;24.90;1.00;;;;;;4997342;28;21086;-87
2023/07/12 15:46:20;;;;;;;2.85;1.25;;;25.20;58.70;;;;;;4974059;28;20674;-87
2023/07/12 15:48:46;;;;;;;3.13;1.35;;;25.00;1.00;;;;;;4978259;28;20186;-87
2023/07/12 15:51:26;;;;;;;2.78;1.23;;;24.70;1.00;;;;;;4999866;28;20191;-87
2023/07/12 15:53:54;;;;;;;3.00;1.10;;;25.00;57.00;;;;;;4981005;28;20349;-88
2023/07/12 15:56:21;;;;;;;2.25;1.20;;;;;;;;;;5001429;28;20572;-88
2023/07/12 15:58:48;;;;;;;2.13;1.08;;;;;;;;;;4975948;28;20184;-88
2023/07/12 16:01:23;;;;;;;3.03;1.30;;;25.00;1.00;;;;;;5003680;28;20207;-89
2023/07/12 16:03:50;;;;;;;3.13;1.30;;;25.10;1.00;;;;;;5001606;28;20191;-89
2023/07/12 16:06:20;;;;;;;2.58;1.20;;;;;;;;;;5003761;28;20307;-89
2023/07/12 16:08:46;;;;;;;1.65;1.10;;;;;;;;;;4993476;28;20191;-88
2023/07/12 16:11:34;;;;;;;1.38;1.15;;;24.60;1.00;;;;;;5007813;28;20192;-90
2023/07/12 16:14:12;;;;;;;2.78;1.88;;;24.50;64.20;;;;;;4981925;28;20218;-88
2023/07/12 16:16:39;;;;;;;3.10;1.40;;;;;;;;;;4993946;28;20181;-90
2023/07/12 16:19:06;;;;;;;2.17;1.40;;;24.30;1.00;;;;;;4992696;28;20267;-90
2023/07/12 16:21:33;;;;;;;2.35;1.20;;;24.50;71.90;;;;;;4975395;28;20622;-88
2023/07/12 16:24:00;;;;;;;2.20;1.50;;;24.50;70.80;;;;;;4989064;28;20211;-90
2023/07/12 16:26:30;;;;;;;2.47;1.73;;;24.30;99.90;;;;;;5004643;28;20195;-87
2023/07/12 16:28:57;;;;;;;1.50;1.30;;;;;;;;;;4981549;28;20196;-85
2023/07/12 16:31:23;;;;;;;1.45;1.20;;;;;;;;;;4998881;28;20195;-85
2023/07/12 16:33:50;;;;;;;2.95;1.27;;;24.70;91.10;;;;;;4998523;28;20270;-85
2023/07/12 16:36:16;;;;;;;2.25;1.30;;;;;;;;;;4973551;28;20184;-85
2023/07/12 16:38:43;;;;;;;2.72;1.48;;;;;;;;;;4997345;28;20583;-86
2023/07/12 16:41:22;;;;;;;2.40;1.13;;;24.60;93.00;;;;;;4996240;28;20572;-85
2023/07/12 16:43:47;;;;;;;2.05;1.20;;;24.60;1.00;;;;;;4997392;28;20182;-85
2023/07/12 16:46:13;;;;;;;2.15;1.17;;;;;;;;;;4996092;28;20192;-86
2023/07/12 16:48:41;;;;;;;1.90;1.20;;;24.20;1.00;;;;;;4990043;28;20172;-86
2023/07/12 16:51:13;;;;;;;3.88;1.70;;;24.40;99.90;;;;;;4996788;28;20184;-85
2023/07/12 16:54:43;;;;;;;1.75;1.10;;;24.40;36.70;;;;;;4983849;28;20833;-86
2023/07/12 16:58:04;;;;;;;2.03;1.27;;;24.20;48.10;;;;;;4921409;29;20242;-86
2023/07/12 17:00:30;;;;;;;2.00;1.27;;;;;;;;;;4889908;29;20231;-85
2023/07/12 17:02:56;;;;;;;1.40;1.10;;;;;;;;;;4934087;28;20201;-86
2023/07/12 17:05:22;;;;;;;3.00;1.45;;;;;;;;;;4960200;28;20241;-86
2023/07/12 17:07:48;;;;;;;2.17;1.33;;;;;;;;;;4988831;28;20188;-85
2023/07/12 17:10:14;;;;;;;1.90;1.40;;;;;;;;;;4996105;28;20674;-85
2023/07/12 17:12:40;;;;;;;2.33;1.35;;;;;;;;;;4996261;28;20192;-85
2023/07/12 17:15:11;;;;;;;2.13;1.48;;;24.00;52.70;;;;;;4995947;28;20208;-86
2023/07/12 17:17:37;;;;;;;1.58;1.25;;;;;;;;;;4979558;28;20175;-86
2023/07/12 17:20:06;;;;;;;2.80;1.45;;;;;;;;;;4996645;28;20207;-85
2023/07/12 17:22:32;;;;;;;3.30;1.30;;;;;;;;;;4988777;28;20172;-85
2023/07/12 17:24:58;;;;;;;3.38;1.30;;;;;;;;;;4995903;28;20235;-85
2023/07/12 17:27:25;;;;;;;2.63;1.33;;;;;;;;;;4997030;28;20180;-86
2023/07/12 17:29:51;;;;;;;1.52;1.10;;;;;;;;;;4979507;28;20186;-85
2023/07/12 17:32:22;;;;;;;3.75;1.58;;;23.70;40.80;;;;;;4996441;28;20658;-85
2023/07/12 17:34:48;;;;;;;2.75;1.20;;;;;;;;;;4995830;28;20203;-86
2023/07/12 17:37:18;;;;;;;2.63;1.20;;;23.60;59.70;;;;;;4995817;28;20583;-86